createdAt,value
2023-03-06T00:03:57.784Z,95984.66
2023-03-06T00:09:18.508Z,95975.59
2023-03-06T00:14:39.254Z,95983.94
2023-03-06T00:19:59.974Z,95990.44
2023-03-06T00:25:21.959Z,95997.63
2023-03-06T00:30:43.549Z,95987.00
2023-03-06T00:36:05.991Z,95991.34
2023-03-06T00:41:27.315Z,95994.63
2023-03-06T00:46:48.125Z,95979.09
2023-03-06T00:52:08.959Z,95980.34
2023-03-06T00:57:29.857Z,95972.31
2023-03-06T01:02:53.654Z,95966.16
2023-03-06T01:08:16.158Z,95960.50
2023-03-06T01:13:36.783Z,95950.94
2023-03-06T01:18:57.555Z,95957.81
2023-03-06T01:24:18.265Z,95945.81
2023-03-06T01:29:39.106Z,95941.59
2023-03-06T01:34:59.701Z,95933.75
2023-03-06T01:40:20.779Z,95935.00
2023-03-06T01:45:41.688Z,95922.28
2023-03-06T01:51:02.460Z,95920.00
2023-03-06T01:56:24.033Z,95919.66
2023-03-06T02:01:46.758Z,95917.84
2023-03-06T02:07:09.297Z,95910.63
2023-03-06T02:12:30.407Z,95902.53
2023-03-06T02:17:52.461Z,95892.91
2023-03-06T02:23:21.375Z,95894.94
2023-03-06T02:28:42.102Z,95891.78
2023-03-06T02:34:07.599Z,95887.84
2023-03-06T02:39:31.270Z,95890.53
2023-03-06T02:44:54.285Z,95882.66
2023-03-06T02:50:14.957Z,95884.41
2023-03-06T02:55:36.378Z,95881.03
2023-03-06T03:00:57.543Z,95880.69
2023-03-06T03:06:18.867Z,95876.50
2023-03-06T03:11:40.679Z,95871.44
2023-03-06T03:17:01.597Z,95868.25
2023-03-06T03:22:22.744Z,95858.00
2023-03-06T03:27:44.613Z,95853.66
2023-03-06T03:33:06.364Z,95844.81
2023-03-06T03:38:27.871Z,95843.50
2023-03-06T03:43:49.440Z,95842.63
2023-03-06T03:49:10.153Z,95830.81
2023-03-06T03:54:31.863Z,95824.44
2023-03-06T03:59:53.210Z,95830.19
2023-03-06T04:05:19.278Z,95820.75
2023-03-06T04:10:42.115Z,95816.63
2023-03-06T04:16:04.654Z,95820.31
2023-03-06T04:21:27.862Z,95810.38
2023-03-06T04:26:49.266Z,95802.25
2023-03-06T04:32:10.217Z,95808.44
2023-03-06T04:37:31.489Z,95804.44
2023-03-06T04:42:54.558Z,95802.16
2023-03-06T04:48:17.975Z,95793.22
2023-03-06T04:53:38.671Z,95785.50
2023-03-06T04:58:59.491Z,95783.50
2023-03-06T05:04:20.164Z,95781.78
2023-03-06T05:09:40.848Z,95783.13
2023-03-06T05:15:01.311Z,95774.41
2023-03-06T05:20:22.390Z,95771.94
2023-03-06T05:25:43.351Z,95762.50
2023-03-06T05:31:05.271Z,95768.34
2023-03-06T05:36:25.979Z,95768.84
2023-03-06T05:41:46.547Z,95771.72
2023-03-06T05:47:08.404Z,95772.44
2023-03-06T05:52:29.497Z,95770.72
2023-03-06T05:57:51.682Z,95762.38
2023-03-06T06:03:12.303Z,95763.81
2023-03-06T06:08:32.979Z,95776.69
2023-03-06T06:13:53.739Z,95767.03
2023-03-06T06:19:18.766Z,95771.78
2023-03-06T06:24:39.793Z,95771.56
2023-03-06T06:30:00.423Z,95773.63
2023-03-06T06:35:21.252Z,95773.75
2023-03-06T06:40:42.550Z,95768.09
2023-03-06T06:46:31.443Z,95766.75
2023-03-06T06:51:45.096Z,95760.78
2023-03-06T06:57:05.853Z,95761.50
2023-03-06T07:02:26.742Z,95758.13
2023-03-06T07:07:47.463Z,95752.69
2023-03-06T07:13:08.096Z,95747.66
2023-03-06T07:18:29.117Z,95755.47
2023-03-06T07:23:50.412Z,95750.66
2023-03-06T07:29:11.153Z,95757.31
2023-03-06T07:34:31.926Z,95752.91
2023-03-06T07:39:52.647Z,95752.91
2023-03-06T07:45:13.795Z,95759.34
2023-03-06T07:50:35.125Z,95750.22
2023-03-06T07:55:56.533Z,95749.53
2023-03-06T08:01:20.041Z,95752.69
2023-03-06T08:06:40.927Z,95751.84
2023-03-06T08:12:02.288Z,95754.34
2023-03-06T08:17:22.924Z,95748.16
2023-03-06T08:22:43.575Z,95740.97
2023-03-06T08:28:04.358Z,95745.16
2023-03-06T08:33:25.547Z,95746.38
2023-03-06T08:38:46.470Z,95752.22
2023-03-06T08:44:07.191Z,95743.50
2023-03-06T08:49:27.910Z,95736.72
2023-03-06T08:54:48.625Z,95732.09
2023-03-06T09:00:10.941Z,95739.75
2023-03-06T09:05:32.341Z,95736.00
2023-03-06T09:10:53.212Z,95746.50
2023-03-06T09:16:13.956Z,95736.47
2023-03-06T09:21:34.775Z,95746.09
2023-03-06T09:26:55.504Z,95739.13
2023-03-06T09:32:16.300Z,95738.41
2023-03-06T09:37:37.196Z,95734.34
2023-03-06T09:42:58.081Z,95729.09
2023-03-06T09:48:28.436Z,95730.94
2023-03-06T09:54:13.855Z,95724.03
2023-03-06T09:59:34.765Z,95725.81
2023-03-06T10:05:04.097Z,95720.78
2023-03-06T10:10:28.405Z,95721.47
2023-03-06T10:15:50.265Z,95715.28
2023-03-06T10:21:26.439Z,95708.38
2023-03-06T10:26:58.319Z,95706.84
2023-03-06T10:32:47.649Z,95713.16
2023-03-06T10:38:32.269Z,95710.25
2023-03-06T10:44:05.316Z,95710.94
2023-03-06T10:49:36.812Z,95711.66
2023-03-06T10:55:37.759Z,95700.41
2023-03-06T11:01:03.577Z,95692.59
2023-03-06T11:06:37.055Z,95690.34
2023-03-06T11:12:38.098Z,95692.81
2023-03-06T11:18:08.802Z,95684.22
2023-03-06T11:23:46.582Z,95670.03
2023-03-06T11:29:12.172Z,95667.16
2023-03-06T11:35:04.460Z,95664.06
2023-03-06T11:40:33.821Z,95647.66
2023-03-06T11:46:12.074Z,95644.22
2023-03-06T11:51:38.153Z,95633.91
2023-03-06T11:57:06.940Z,95625.56
2023-03-06T12:02:57.238Z,95617.38
2023-03-06T12:08:36.415Z,95611.88
2023-03-06T12:14:13.833Z,95604.75
2023-03-06T12:19:40.518Z,95596.94
2023-03-06T12:25:17.376Z,95594.28
2023-03-06T12:30:49.487Z,95584.31
2023-03-06T12:36:28.773Z,95583.56
2023-03-06T12:42:48.644Z,95573.50
2023-03-06T12:48:20.572Z,95569.53
2023-03-06T12:53:42.661Z,95569.47
2023-03-06T12:59:03.597Z,95569.44
2023-03-06T13:04:52.500Z,95560.06
2023-03-06T13:10:25.408Z,95565.88
2023-03-06T13:16:09.946Z,95563.00
2023-03-06T13:21:47.631Z,95551.50
2023-03-06T13:27:11.683Z,95546.19
2023-03-06T13:32:34.101Z,95557.75
2023-03-06T13:37:54.922Z,95563.28
2023-03-06T13:43:21.495Z,95560.44
2023-03-06T13:48:45.796Z,95570.88
2023-03-06T13:54:10.034Z,95564.56
2023-03-06T14:00:03.107Z,95560.31
2023-03-06T14:05:52.852Z,95553.75
2023-03-06T14:11:21.201Z,95541.63
2023-03-06T14:16:50.547Z,95537.19
2023-03-06T14:22:23.085Z,95538.31
2023-03-06T14:27:52.540Z,95539.31
2023-03-06T14:33:13.245Z,95538.31
2023-03-06T14:38:42.323Z,95531.81
2023-03-06T14:44:21.785Z,95535.38
2023-03-06T14:49:42.767Z,95530.53
2023-03-06T14:55:09.675Z,95528.38
2023-03-06T15:00:38.127Z,95530.41
2023-03-06T15:05:59.516Z,95528.53
2023-03-06T15:11:20.192Z,95527.81
2023-03-06T15:16:41.025Z,95532.66
2023-03-06T15:22:01.849Z,95539.31
2023-03-06T15:27:30.330Z,95538.47
2023-03-06T15:32:51.786Z,95536.28
2023-03-06T15:38:42.218Z,95541.28
2023-03-06T15:44:11.424Z,95545.16
2023-03-06T15:49:32.210Z,95553.69
2023-03-06T15:54:53.074Z,95563.00
2023-03-06T16:00:27.299Z,95577.06
2023-03-06T16:05:48.531Z,95595.03
2023-03-06T16:11:32.555Z,95606.00
2023-03-06T16:16:56.907Z,95604.34
2023-03-06T16:22:17.880Z,95598.06
2023-03-06T16:27:38.686Z,95595.38
2023-03-06T16:33:00.226Z,95577.94
2023-03-06T16:38:21.132Z,95573.84
2023-03-06T16:43:41.871Z,95573.00
2023-03-06T16:49:02.539Z,95572.97
2023-03-06T16:54:26.181Z,95577.84
2023-03-06T16:59:47.385Z,95586.78
2023-03-06T17:05:09.843Z,95577.81
2023-03-06T17:10:31.202Z,95579.66
2023-03-06T17:15:59.506Z,95596.88
2023-03-06T17:21:20.569Z,95602.00
2023-03-06T17:26:41.405Z,95607.63
2023-03-06T17:32:02.372Z,95610.03
2023-03-06T17:37:23.337Z,95607.72
2023-03-06T17:42:43.976Z,95607.81
2023-03-06T17:48:04.889Z,95607.84
2023-03-06T17:53:26.731Z,95613.84
2023-03-06T17:58:47.743Z,95619.25
2023-03-06T18:04:08.582Z,95614.91
2023-03-06T18:09:29.469Z,95607.38
2023-03-06T18:14:50.832Z,95612.19
2023-03-06T18:20:12.258Z,95618.97
2023-03-06T18:25:33.713Z,95613.94
2023-03-06T18:30:54.789Z,95619.59
2023-03-06T18:36:16.091Z,95624.84
2023-03-06T18:41:37.667Z,95629.16
2023-03-06T18:46:58.620Z,95620.84
2023-03-06T18:52:19.593Z,95630.91
2023-03-06T18:57:40.929Z,95626.25
2023-03-06T19:03:01.775Z,95629.63
2023-03-06T19:08:22.443Z,95630.34
2023-03-06T19:13:43.440Z,95633.63
2023-03-06T19:19:04.558Z,95635.03
2023-03-06T19:24:25.299Z,95635.38
2023-03-06T19:29:46.018Z,95638.03
2023-03-06T19:35:07.013Z,95637.69
2023-03-06T19:40:28.213Z,95638.88
2023-03-06T19:45:49.030Z,95631.25
2023-03-06T19:51:10.631Z,95631.84
2023-03-06T19:56:33.816Z,95631.53
2023-03-06T20:01:54.989Z,95633.81
2023-03-06T20:07:15.799Z,95636.91
2023-03-06T20:12:36.659Z,95640.88
2023-03-06T20:17:57.424Z,95639.94
2023-03-06T20:23:19.129Z,95644.59
2023-03-06T20:28:42.165Z,95640.66
2023-03-06T20:34:05.415Z,95650.47
2023-03-06T20:39:26.108Z,95647.97
2023-03-06T20:44:47.242Z,95641.34
2023-03-06T20:50:08.539Z,95651.06
2023-03-06T20:55:29.342Z,95647.53
2023-03-06T21:00:50.066Z,95651.63
2023-03-06T21:06:10.693Z,95642.06
2023-03-06T21:11:31.475Z,95638.06
2023-03-06T21:16:52.162Z,95640.06
2023-03-06T21:22:13.791Z,95641.44
2023-03-06T21:27:34.564Z,95639.09
2023-03-06T21:32:55.718Z,95641.91
2023-03-06T21:38:17.029Z,95642.38
2023-03-06T21:43:38.927Z,95634.91
2023-03-06T21:49:01.602Z,95644.16
2023-03-06T21:54:22.947Z,95640.88
2023-03-06T21:59:43.596Z,95632.34
2023-03-06T22:05:04.807Z,95632.69
2023-03-06T22:10:25.699Z,95630.13
2023-03-06T22:15:50.800Z,95622.53
2023-03-06T22:21:14.661Z,95613.28
2023-03-06T22:26:35.519Z,95616.09
2023-03-06T22:31:56.299Z,95615.03
2023-03-06T22:37:17.206Z,95608.00
2023-03-06T22:42:37.765Z,95613.06
2023-03-06T22:48:10.144Z,95606.38
2023-03-06T22:53:32.707Z,95605.78
2023-03-06T22:58:53.833Z,95600.56
2023-03-06T23:04:14.715Z,95606.97
2023-03-06T23:09:35.325Z,95595.50
2023-03-06T23:15:14.635Z,95607.19
2023-03-06T23:20:54.113Z,95603.34
2023-03-06T23:26:34.488Z,95599.84
2023-03-06T23:31:55.457Z,95604.38
2023-03-06T23:37:16.050Z,95602.41
2023-03-06T23:42:37.392Z,95592.59
2023-03-06T23:47:58.272Z,95596.09
2023-03-06T23:53:19.700Z,95585.34
2023-03-06T23:58:40.927Z,95581.13
